createdAt,value
2019-05-13T00:00:46.670Z,949.1
2019-05-13T00:01:48.915Z,949.1
2019-05-13T00:02:49.485Z,948.9
2019-05-13T00:03:49.881Z,949.1
2019-05-13T00:04:53.094Z,949.1
2019-05-13T00:05:53.548Z,949
2019-05-13T00:07:04.609Z,949.1
2019-05-13T00:07:55.164Z,949
2019-05-13T00:08:56.560Z,949.1
2019-05-13T00:09:59.715Z,949
2019-05-13T00:10:57.815Z,949.1
2019-05-13T00:11:58.975Z,949
2019-05-13T00:13:00.372Z,949
2019-05-13T00:14:04.222Z,949
2019-05-13T00:15:03.688Z,949
2019-05-13T00:16:03.985Z,949
2019-05-13T00:17:05.138Z,949.1
2019-05-13T00:18:06.267Z,949.1
2019-05-13T00:19:07.395Z,949
2019-05-13T00:20:09.413Z,949
2019-05-13T00:21:08.518Z,949.1
2019-05-13T00:22:10.146Z,947.2
2019-05-13T00:23:10.527Z,949
2019-05-13T00:24:13.772Z,949
2019-05-13T00:25:14.451Z,948.9
2019-05-13T00:26:14.219Z,949
2019-05-13T00:27:14.634Z,949
2019-05-13T00:28:15.757Z,949
2019-05-13T00:29:16.892Z,949
2019-05-13T00:30:17.385Z,949
2019-05-13T00:31:19.221Z,949
2019-05-13T00:32:19.640Z,949
2019-05-13T00:33:21.060Z,948.9
2019-05-13T00:34:24.196Z,948.8
2019-05-13T00:35:23.445Z,949
2019-05-13T00:36:24.807Z,949
2019-05-13T00:37:25.977Z,949
2019-05-13T00:38:27.108Z,948.5
2019-05-13T00:39:28.230Z,948.9
2019-05-13T00:40:28.726Z,948.9
2019-05-13T00:41:29.851Z,949
2019-05-13T00:42:33.312Z,949
2019-05-13T00:43:33.794Z,949
2019-05-13T00:44:34.291Z,949
2019-05-13T00:45:35.418Z,948.9
2019-05-13T00:46:36.548Z,948.9
2019-05-13T00:47:39.549Z,948.8
2019-05-13T00:48:39.063Z,947.8
2019-05-13T00:49:40.191Z,948.8
2019-05-13T00:50:44.022Z,949
2019-05-13T00:51:44.389Z,949
2019-05-13T00:52:44.778Z,949
2019-05-13T00:53:45.322Z,949
2019-05-13T00:54:46.717Z,948.9
2019-05-13T00:55:49.960Z,948.9
2019-05-13T00:56:49.331Z,948.8
2019-05-13T00:57:50.760Z,948.9
2019-05-13T00:58:53.958Z,948.8
2019-05-13T00:59:54.042Z,948.7
2019-05-13T01:00:54.570Z,948.8
2019-05-13T01:01:55.067Z,948.9
2019-05-13T01:02:58.686Z,948.9
2019-05-13T01:03:56.790Z,948.8
2019-05-13T01:04:57.916Z,948.8
2019-05-13T01:05:59.041Z,947.6
2019-05-13T01:07:00.440Z,948.4
2019-05-13T01:08:03.886Z,948.9
2019-05-13T01:09:04.131Z,948.7
2019-05-13T01:10:04.187Z,948.7
2019-05-13T01:11:04.428Z,948.8
2019-05-13T01:12:04.817Z,948.7
2019-05-13T01:13:06.229Z,948.8
2019-05-13T01:14:09.699Z,947.8
2019-05-13T01:15:09.504Z,948.7
2019-05-13T01:16:09.887Z,948.8
2019-05-13T01:17:11.025Z,948.7
2019-05-13T01:18:14.196Z,948.8
2019-05-13T01:19:14.296Z,948.7
2019-05-13T01:20:14.651Z,948.7
2019-05-13T01:21:15.396Z,948.7
2019-05-13T01:22:16.530Z,948.7
2019-05-13T01:23:17.682Z,948.7
2019-05-13T01:24:19.926Z,948.7
2019-05-13T01:25:20.319Z,948.7
2019-05-13T01:26:23.263Z,948.6
2019-05-13T01:27:23.906Z,948.7
2019-05-13T01:28:23.895Z,948.8
2019-05-13T01:29:24.139Z,948.7
2019-05-13T01:30:25.287Z,948.7
2019-05-13T01:31:25.782Z,948.7
2019-05-13T01:32:29.316Z,948.5
2019-05-13T01:33:29.099Z,948.7
2019-05-13T01:34:29.478Z,948.7
2019-05-13T01:35:30.614Z,948.6
2019-05-13T01:36:33.511Z,948.7
2019-05-13T01:37:50.916Z,948.6
2019-05-13T01:38:34.171Z,948.6
2019-05-13T01:39:35.570Z,948.6
2019-05-13T01:40:36.693Z,948.7
2019-05-13T01:41:38.754Z,948.6
2019-05-13T01:42:39.087Z,948.7
2019-05-13T01:43:39.498Z,948.6
2019-05-13T01:44:40.626Z,948.7
2019-05-13T01:45:43.711Z,948.7
2019-05-13T01:46:43.844Z,948.6
2019-05-13T01:47:44.367Z,948.6
2019-05-13T01:48:45.496Z,948.7
2019-05-13T01:49:49.307Z,948.7
2019-05-13T01:50:47.413Z,948.6
2019-05-13T01:51:49.427Z,948.6
2019-05-13T01:52:50.028Z,948.4
2019-05-13T01:53:49.564Z,948.5
2019-05-13T01:54:50.959Z,948.5
2019-05-13T01:55:53.234Z,948.6
2019-05-13T01:56:53.706Z,948.6
2019-05-13T01:57:54.839Z,948.6
2019-05-13T01:58:56.003Z,948.6
2019-05-13T01:59:59.217Z,948.7
2019-05-13T02:01:00.737Z,948.5
2019-05-13T02:01:59.487Z,948.5
2019-05-13T02:02:59.883Z,948.6
2019-05-13T02:04:03.644Z,948.5
2019-05-13T02:05:03.906Z,948.6
2019-05-13T02:06:03.858Z,948.4
2019-05-13T02:07:04.440Z,948.5
2019-05-13T02:08:05.567Z,948.5
2019-05-13T02:09:06.722Z,948.5
2019-05-13T02:10:09.678Z,948.5
2019-05-13T02:11:09.927Z,948.5
2019-05-13T02:12:10.425Z,948.4
2019-05-13T02:13:10.811Z,948.5
2019-05-13T02:14:13.234Z,948.5
2019-05-13T02:15:14.470Z,948.5
2019-05-13T02:16:15.019Z,948.5
2019-05-13T02:17:16.407Z,948.5
2019-05-13T02:18:18.871Z,948.4
2019-05-13T02:19:18.968Z,948.5
2019-05-13T02:20:20.111Z,948.3
2019-05-13T02:21:21.232Z,948.5
2019-05-13T02:22:24.529Z,948.3
2019-05-13T02:23:23.772Z,948.4
2019-05-13T02:24:24.153Z,948.5
2019-05-13T02:25:25.545Z,948.4
2019-05-13T02:26:26.672Z,948.3
2019-05-13T02:27:27.806Z,948.4
2019-05-13T02:28:28.935Z,948.4
2019-05-13T02:29:30.093Z,948.3
2019-05-13T02:30:34.868Z,948.4
2019-05-13T02:31:45.081Z,948.4
2019-05-13T02:32:33.149Z,948.3
2019-05-13T02:33:34.522Z,948.2
2019-05-13T02:34:37.748Z,948.3
2019-05-13T02:35:38.026Z,948.3
2019-05-13T02:36:38.144Z,948.2
2019-05-13T02:37:42.492Z,948.2
2019-05-13T02:38:42.663Z,948.2
2019-05-13T02:39:42.824Z,948.1
2019-05-13T02:40:43.474Z,948.2
2019-05-13T02:41:43.903Z,948.2
2019-05-13T02:42:44.388Z,948.3
2019-05-13T02:43:45.673Z,948.3
2019-05-13T02:44:46.824Z,948.1
2019-05-13T02:45:48.478Z,948.3
2019-05-13T02:46:52.404Z,948.3
2019-05-13T02:47:52.107Z,948.2
2019-05-13T02:48:52.731Z,948.2
2019-05-13T02:49:53.240Z,948.1
2019-05-13T02:50:52.840Z,948.2
2019-05-13T02:51:54.564Z,948.4
2019-05-13T02:52:53.648Z,948.3
2019-05-13T02:53:57.874Z,948.3
2019-05-13T02:54:58.292Z,948.3
2019-05-13T02:55:58.114Z,948.3
2019-05-13T02:56:58.492Z,948.3
2019-05-13T02:58:02.955Z,948.3
2019-05-13T02:59:03.762Z,948.2
2019-05-13T03:00:04.021Z,948.2
2019-05-13T03:01:03.239Z,948.3
2019-05-13T03:02:04.295Z,948.3
2019-05-13T03:03:03.929Z,948.4
2019-05-13T03:04:08.745Z,948.3
2019-05-13T03:05:05.864Z,948.3
2019-05-13T03:06:08.592Z,948.3
2019-05-13T03:07:07.713Z,948.4
2019-05-13T03:08:12.426Z,948.3
2019-05-13T03:09:12.619Z,948.3
2019-05-13T03:10:13.469Z,948.3
2019-05-13T03:11:12.676Z,948.4
2019-05-13T03:12:13.451Z,948.4
2019-05-13T03:13:17.996Z,948.2
2019-05-13T03:14:18.344Z,948.3
2019-05-13T03:15:16.469Z,948.3
2019-05-13T03:16:19.087Z,948.3
2019-05-13T03:17:18.202Z,948.3
2019-05-13T03:18:22.490Z,948.3
2019-05-13T03:19:22.371Z,948.3
2019-05-13T03:20:22.741Z,948.3
2019-05-13T03:21:23.587Z,948.3
2019-05-13T03:22:23.961Z,948.3
2019-05-13T03:23:24.466Z,948.3
2019-05-13T03:24:25.592Z,948.3
2019-05-13T03:25:28.553Z,948.2
2019-05-13T03:26:27.671Z,948.3
2019-05-13T03:27:33.612Z,948.4
2019-05-13T03:28:32.939Z,948.3
2019-05-13T03:29:32.923Z,948.3
2019-05-13T03:30:35.098Z,948.3
2019-05-13T03:31:35.719Z,948.4
2019-05-13T03:32:42.054Z,948.4
2019-05-13T03:35:36.407Z,948.5
2019-05-13T03:36:45.635Z,948.4
2019-05-13T03:37:34.765Z,948.3
2019-05-13T03:38:32.944Z,948.4
2019-05-13T03:39:33.462Z,948.4
2019-05-13T03:40:38.416Z,948.3
2019-05-13T03:41:38.345Z,948.3
2019-05-13T03:42:36.449Z,948.4
2019-05-13T03:43:38.058Z,948.4
2019-05-13T03:44:38.440Z,948.3
2019-05-13T03:45:43.010Z,948.4
2019-05-13T03:46:42.490Z,948.3
2019-05-13T03:47:42.141Z,948.4
2019-05-13T03:48:42.784Z,948.4
2019-05-13T03:49:42.583Z,948.3
2019-05-13T03:50:43.448Z,948.2
2019-05-13T03:51:43.636Z,948.4
2019-05-13T03:52:44.763Z,948.5
2019-05-13T03:53:45.891Z,946.7
2019-05-13T03:54:47.023Z,948.5
2019-05-13T03:55:48.151Z,948.4
2019-05-13T03:56:52.704Z,948.6
2019-05-13T03:57:53.096Z,948.5
2019-05-13T03:58:53.606Z,948.6
2019-05-13T03:59:52.654Z,948.6
2019-05-13T04:00:53.122Z,948.5
2019-05-13T04:01:54.276Z,948.6
2019-05-13T04:02:57.586Z,948.5
2019-05-13T04:03:58.335Z,948.4
2019-05-13T04:04:59.073Z,948.6
2019-05-13T04:05:58.799Z,948.5
2019-05-13T04:07:02.576Z,948.4
2019-05-13T04:08:03.044Z,948.6
2019-05-13T04:09:36.919Z,948.4
2019-05-13T04:10:03.466Z,948.7
2019-05-13T04:11:04.030Z,948.5
2019-05-13T04:12:08.866Z,948.6
2019-05-13T04:13:12.380Z,948.6
2019-05-13T04:14:11.994Z,948.5
2019-05-13T04:15:07.481Z,948.6
2019-05-13T04:16:12.667Z,948.5
2019-05-13T04:17:12.219Z,948.7
2019-05-13T04:18:12.460Z,948.6
2019-05-13T04:19:12.359Z,948.6
2019-05-13T04:20:12.918Z,948.6
2019-05-13T04:21:14.302Z,948.6
2019-05-13T04:22:15.438Z,948.6
2019-05-13T04:23:18.342Z,948.5
2019-05-13T04:24:17.788Z,948.7
2019-05-13T04:25:19.184Z,948.6
2019-05-13T04:26:23.495Z,948.7
2019-05-13T04:27:23.261Z,948.6
2019-05-13T04:28:22.552Z,948.7
2019-05-13T04:29:23.766Z,948.7
2019-05-13T04:30:24.863Z,948.7
2019-05-13T04:31:28.409Z,948.6
2019-05-13T04:32:33.861Z,948.6
2019-05-13T04:33:28.646Z,948.5
2019-05-13T04:34:29.031Z,948.7
2019-05-13T04:35:32.419Z,948.7
2019-05-13T04:36:32.061Z,948.7
2019-05-13T04:37:32.773Z,948.6
2019-05-13T04:38:33.453Z,948.7
2019-05-13T04:39:56.926Z,948.6
2019-05-13T04:40:35.824Z,948.6
2019-05-13T04:41:36.949Z,948.7
2019-05-13T04:42:38.097Z,948.7
2019-05-13T04:43:42.905Z,948.3
2019-05-13T04:44:42.735Z,948.7
2019-05-13T04:45:42.976Z,948.7
2019-05-13T04:46:43.289Z,948.7
2019-05-13T04:47:43.496Z,948.7
2019-05-13T04:48:44.337Z,948.7
2019-05-13T04:49:44.572Z,948.7
2019-05-13T04:50:48.598Z,948.7
2019-05-13T04:51:47.577Z,948.7
2019-05-13T04:52:48.035Z,948.3
2019-05-13T04:53:53.460Z,948.7
2019-05-13T04:54:52.741Z,948.8
2019-05-13T04:55:52.588Z,948.7
2019-05-13T04:56:52.604Z,948.8
2019-05-13T04:57:53.440Z,948.7
2019-05-13T04:58:53.660Z,948.8
2019-05-13T04:59:55.210Z,948.8
2019-05-13T05:01:14.543Z,948.9
2019-05-13T05:02:12.820Z,948.6
2019-05-13T05:02:57.163Z,948.9
2019-05-13T05:03:58.289Z,948.9
2019-05-13T05:05:02.823Z,947.5
2019-05-13T05:06:03.185Z,948.9
2019-05-13T05:07:03.095Z,948.7
2019-05-13T05:08:03.090Z,948.8
2019-05-13T05:09:03.341Z,948.8
2019-05-13T05:10:43.103Z,948.8
2019-05-13T05:11:07.573Z,948.9
2019-05-13T05:12:07.592Z,948.7
2019-05-13T05:13:07.711Z,948.7
2019-05-13T05:14:08.171Z,948.9
2019-05-13T05:15:08.551Z,948.8
2019-05-13T05:16:12.722Z,948.9
2019-05-13T05:17:12.361Z,949
2019-05-13T05:18:12.263Z,948.9
2019-05-13T05:19:13.656Z,948.9
2019-05-13T05:20:14.784Z,949
2019-05-13T05:21:15.924Z,949
2019-05-13T05:22:18.847Z,948.9
2019-05-13T05:23:18.249Z,948.9
2019-05-13T05:24:21.915Z,948.9
2019-05-13T05:25:22.032Z,948.7
2019-05-13T05:26:22.054Z,949
2019-05-13T05:27:22.237Z,948.7
2019-05-13T05:28:23.575Z,948.8
2019-05-13T05:29:24.705Z,948.8
2019-05-13T05:30:25.835Z,948.9
2019-05-13T05:31:28.490Z,949
2019-05-13T05:32:27.598Z,948.8
2019-05-13T05:33:28.762Z,948.8
2019-05-13T05:34:32.160Z,949
2019-05-13T05:35:32.310Z,948.9
2019-05-13T05:36:32.553Z,949
2019-05-13T05:37:33.703Z,948.9
2019-05-13T05:38:34.262Z,949
2019-05-13T05:39:36.943Z,949
2019-05-13T05:40:36.061Z,948.8
2019-05-13T05:41:37.449Z,949
2019-05-13T05:42:40.675Z,948.9
2019-05-13T05:43:42.834Z,948.9
2019-05-13T05:44:42.160Z,948.6
2019-05-13T05:45:41.556Z,949
2019-05-13T05:46:43.051Z,949
2019-05-13T05:47:44.145Z,949
2019-05-13T05:48:50.033Z,949
2019-05-13T05:49:46.469Z,949
2019-05-13T05:50:47.809Z,949
2019-05-13T05:51:48.197Z,948.9
2019-05-13T05:52:51.324Z,949
2019-05-13T05:53:51.637Z,949
2019-05-13T05:54:51.834Z,949.1
2019-05-13T05:55:54.785Z,949
2019-05-13T05:56:54.283Z,948.9
2019-05-13T05:57:57.609Z,949
2019-05-13T05:58:56.539Z,949
2019-05-13T05:59:57.935Z,949
2019-05-13T06:00:59.329Z,948.9
2019-05-13T06:02:01.916Z,949.1
2019-05-13T06:03:02.443Z,949.1
2019-05-13T06:04:02.681Z,949.1
2019-05-13T06:05:04.071Z,948.9
2019-05-13T06:06:07.178Z,949
2019-05-13T06:07:06.292Z,949
2019-05-13T06:08:07.683Z,949
2019-05-13T06:09:08.491Z,948.9
2019-05-13T06:10:11.417Z,949
2019-05-13T06:11:11.709Z,949.1
2019-05-13T06:12:12.241Z,949
2019-05-13T06:13:13.632Z,949
2019-05-13T06:14:16.718Z,949
2019-05-13T06:15:17.727Z,949.1
2019-05-13T06:16:17.711Z,949
2019-05-13T06:17:17.833Z,949.1
2019-05-13T06:18:18.957Z,949
2019-05-13T06:19:19.285Z,949
2019-05-13T06:20:21.079Z,949.1
2019-05-13T06:21:21.657Z,949.1
2019-05-13T06:22:22.755Z,949.2
2019-05-13T06:23:24.179Z,949
2019-05-13T06:24:32.151Z,949
2019-05-13T06:25:28.992Z,949.2
2019-05-13T06:26:27.093Z,949.1
2019-05-13T06:27:28.224Z,949
2019-05-13T06:28:29.348Z,949.1
2019-05-13T06:29:31.598Z,949.1
2019-05-13T06:30:32.517Z,949.1
2019-05-13T06:31:32.360Z,949.1
2019-05-13T06:32:32.763Z,949.1
2019-05-13T06:33:34.165Z,949
2019-05-13T06:34:38.361Z,948.9
2019-05-13T06:35:37.726Z,949.1
2019-05-13T06:36:38.112Z,949.1
2019-05-13T06:37:41.423Z,948.9
2019-05-13T06:38:42.410Z,949.2
2019-05-13T06:39:41.931Z,949.1
2019-05-13T06:40:42.539Z,949.1
2019-05-13T06:41:46.206Z,947.4
2019-05-13T06:42:44.337Z,949.1
2019-05-13T06:43:47.249Z,949.1
2019-05-13T06:44:47.555Z,948.8
2019-05-13T06:45:47.939Z,949.1
2019-05-13T06:46:51.625Z,949.1
2019-05-13T06:47:52.100Z,949.1
2019-05-13T06:48:52.134Z,949.1
2019-05-13T06:49:51.943Z,949.1
2019-05-13T06:50:53.074Z,949
2019-05-13T06:51:54.467Z,948.8
2019-05-13T06:52:56.865Z,949
2019-05-13T06:53:56.983Z,949
2019-05-13T06:54:58.386Z,949
2019-05-13T06:56:01.488Z,949
2019-05-13T06:57:04.114Z,949
2019-05-13T06:58:02.273Z,949.1
2019-05-13T06:59:02.706Z,947.5
2019-05-13T07:00:03.482Z,949.1
2019-05-13T07:01:04.663Z,949
2019-05-13T07:02:07.743Z,947.7
2019-05-13T07:03:07.790Z,949
2019-05-13T07:04:07.904Z,949
2019-05-13T07:05:11.729Z,949
2019-05-13T07:06:12.286Z,949
2019-05-13T07:07:16.067Z,949
2019-05-13T07:08:13.269Z,949
2019-05-13T07:09:14.394Z,949.1
2019-05-13T07:10:18.131Z,949.1
2019-05-13T07:11:31.384Z,949
2019-05-13T07:12:17.518Z,949
2019-05-13T07:13:18.639Z,949.1
2019-05-13T07:14:21.741Z,949.1
2019-05-13T07:15:22.342Z,949
2019-05-13T07:16:22.402Z,949.1
2019-05-13T07:17:22.794Z,949.1
2019-05-13T07:18:24.198Z,949
2019-05-13T07:19:25.328Z,949.2
2019-05-13T07:20:28.145Z,949.1
2019-05-13T07:21:27.520Z,949
2019-05-13T07:22:31.786Z,949
2019-05-13T07:23:31.783Z,949
2019-05-13T07:24:32.190Z,949.1
2019-05-13T07:25:32.895Z,949.1
2019-05-13T07:26:33.988Z,949.1
2019-05-13T07:27:37.210Z,949.2
2019-05-13T07:28:37.770Z,949.2
2019-05-13T07:29:38.062Z,949.1
2019-05-13T07:30:37.612Z,949
2019-05-13T07:31:38.742Z,949.1
2019-05-13T07:32:42.024Z,949.2
2019-05-13T07:33:42.591Z,949.2
2019-05-13T07:34:43.741Z,949.1
2019-05-13T07:35:45.240Z,949.2
2019-05-13T07:36:44.770Z,949
2019-05-13T07:37:47.744Z,949.2
2019-05-13T07:38:46.858Z,949.2
2019-05-13T07:39:48.264Z,949.2
2019-05-13T07:40:49.048Z,949
2019-05-13T07:41:52.027Z,949.1
2019-05-13T07:42:52.215Z,949.1
2019-05-13T07:43:52.422Z,949.2
2019-05-13T07:44:53.549Z,949.2
2019-05-13T07:45:56.739Z,949.2
2019-05-13T07:46:57.732Z,949.2
2019-05-13T07:47:57.492Z,949
2019-05-13T07:48:57.627Z,947.5
2019-05-13T07:49:59.002Z,949.2
2019-05-13T07:51:11.693Z,949.2
2019-05-13T07:52:01.521Z,949.2
2019-05-13T07:53:02.212Z,949.2
2019-05-13T07:54:02.691Z,949.2
2019-05-13T07:55:07.085Z,949.1
2019-05-13T07:56:05.263Z,949.2
2019-05-13T07:57:06.401Z,949.1
2019-05-13T07:58:07.532Z,949
2019-05-13T07:59:08.654Z,949.1
2019-05-13T08:00:12.113Z,949.1
2019-05-13T08:01:12.174Z,949.1
2019-05-13T08:02:12.268Z,949.2
2019-05-13T08:03:12.807Z,949.1
2019-05-13T08:04:33.345Z,949.1
2019-05-13T08:05:14.526Z,949.2
2019-05-13T08:06:16.598Z,949.2
2019-05-13T08:07:17.578Z,949.3
2019-05-13T08:08:17.945Z,949.2
2019-05-13T08:09:21.349Z,949.2
2019-05-13T08:10:21.902Z,949.2
2019-05-13T08:11:22.326Z,949.2
2019-05-13T08:12:21.719Z,949.2
2019-05-13T08:13:22.815Z,949.2
2019-05-13T08:14:23.952Z,949.2
2019-05-13T08:15:25.077Z,949.2
2019-05-13T08:16:26.231Z,949.2
2019-05-13T08:17:27.366Z,949.2
2019-05-13T08:18:28.759Z,949.3
2019-05-13T08:19:32.447Z,949.2
2019-05-13T08:20:32.692Z,949.2
2019-05-13T08:21:32.198Z,949.1
2019-05-13T08:22:32.697Z,949.2
2019-05-13T08:23:33.823Z,949.1
2019-05-13T08:24:34.953Z,949.2
2019-05-13T08:25:36.078Z,949.2
2019-05-13T08:26:43.142Z,949.2
2019-05-13T08:27:38.278Z,949.1
2019-05-13T08:28:53.739Z,949
2019-05-13T08:29:42.060Z,949
2019-05-13T08:30:42.541Z,949.2
2019-05-13T08:31:42.653Z,949.1
2019-05-13T08:32:44.046Z,949
2019-05-13T08:33:45.168Z,949.1
2019-05-13T08:34:46.296Z,949
2019-05-13T08:35:53.701Z,949.1
2019-05-13T08:36:48.381Z,949.1
2019-05-13T08:37:51.941Z,949
2019-05-13T08:38:51.831Z,949.1
2019-05-13T08:39:52.130Z,949.1
2019-05-13T08:40:52.638Z,949
2019-05-13T08:41:53.151Z,949.1
2019-05-13T08:42:57.221Z,949.1
2019-05-13T08:43:57.875Z,949
2019-05-13T08:44:57.823Z,949.1
2019-05-13T08:45:57.009Z,949.1
2019-05-13T08:46:58.405Z,949.2
2019-05-13T08:48:01.934Z,949.2
2019-05-13T08:49:03.672Z,949.1
2019-05-13T08:50:04.140Z,949
2019-05-13T08:51:03.387Z,949
2019-05-13T08:52:02.943Z,949.1
2019-05-13T08:53:04.324Z,949.1
2019-05-13T08:54:07.843Z,949
2019-05-13T08:55:07.526Z,949.1
2019-05-13T08:56:07.644Z,949.1
2019-05-13T08:57:08.799Z,949
2019-05-13T08:58:12.152Z,949
2019-05-13T08:59:11.482Z,949
2019-05-13T09:00:13.623Z,948.9
2019-05-13T09:01:13.140Z,949
2019-05-13T09:02:13.667Z,949
2019-05-13T09:03:17.459Z,949.2
2019-05-13T09:04:17.318Z,949.1
2019-05-13T09:05:16.430Z,949.1
2019-05-13T09:06:17.558Z,949.2
2019-05-13T09:07:21.696Z,949.1
2019-05-13T09:08:22.058Z,949.1
2019-05-13T09:09:21.977Z,949.2
2019-05-13T09:10:21.529Z,949.1
2019-05-13T09:11:22.622Z,949.1
2019-05-13T09:12:31.910Z,949.1
2019-05-13T09:13:24.805Z,949.1
2019-05-13T09:14:27.352Z,949.1
2019-05-13T09:15:27.815Z,949.1
2019-05-13T09:16:31.718Z,949
2019-05-13T09:17:31.855Z,949
2019-05-13T09:18:32.071Z,948.2
2019-05-13T09:19:32.632Z,949
2019-05-13T09:20:34.044Z,949
2019-05-13T09:21:35.182Z,949.1
2019-05-13T09:22:35.695Z,949.1
2019-05-13T09:23:37.085Z,949.1
2019-05-13T09:24:43.248Z,949.1
2019-05-13T09:25:41.511Z,949.1
2019-05-13T09:26:42.088Z,949.1
2019-05-13T09:27:42.444Z,949
2019-05-13T09:28:42.897Z,949.1
2019-05-13T09:29:44.027Z,949.1
2019-05-13T09:30:47.854Z,947.6
2019-05-13T09:31:46.995Z,949.1
2019-05-13T09:32:47.993Z,949
2019-05-13T09:33:48.372Z,948.9
2019-05-13T09:34:52.109Z,949
2019-05-13T09:35:53.300Z,948.9
2019-05-13T09:36:51.974Z,949.1
2019-05-13T09:37:52.275Z,949
2019-05-13T09:38:53.399Z,949.1
2019-05-13T09:39:57.124Z,948.9
2019-05-13T09:40:58.668Z,948.9
2019-05-13T09:41:57.621Z,949.1
2019-05-13T09:43:02.521Z,949
2019-05-13T09:43:56.907Z,949
2019-05-13T09:44:58.308Z,949
2019-05-13T09:46:01.616Z,949
2019-05-13T09:47:02.468Z,949
2019-05-13T09:48:02.123Z,949
2019-05-13T09:49:12.640Z,949
2019-05-13T09:50:04.733Z,948.8
2019-05-13T09:51:07.969Z,948.9
2019-05-13T09:52:06.078Z,949
2019-05-13T09:53:06.746Z,949
2019-05-13T09:54:08.119Z,949
2019-05-13T09:55:22.587Z,948.9
2019-05-13T09:56:11.811Z,949.1
2019-05-13T09:57:12.080Z,949.1
2019-05-13T09:58:12.847Z,947.9
2019-05-13T09:59:13.992Z,949.1
2019-05-13T10:00:17.629Z,948.9
2019-05-13T10:01:15.729Z,949.1
2019-05-13T10:02:16.859Z,949
2019-05-13T10:03:17.402Z,949.1
2019-05-13T10:04:18.795Z,949
2019-05-13T10:05:22.351Z,949.2
2019-05-13T10:06:22.160Z,948.9
2019-05-13T10:07:22.861Z,949.1
2019-05-13T10:08:22.247Z,949
2019-05-13T10:09:23.371Z,949.2
2019-05-13T10:10:24.492Z,949.2
2019-05-13T10:11:25.621Z,949.1
2019-05-13T10:12:31.783Z,949.1
2019-05-13T10:15:23.513Z,949.1
2019-05-13T10:16:24.276Z,949.1
2019-05-13T10:17:27.658Z,949.1
2019-05-13T10:18:26.777Z,949
2019-05-13T10:19:27.932Z,949.2
2019-05-13T10:20:29.379Z,949.2
2019-05-13T10:21:32.487Z,948.9
2019-05-13T10:22:32.243Z,949.2
2019-05-13T10:23:33.653Z,949.1
2019-05-13T10:24:38.203Z,949.1
2019-05-13T10:25:35.303Z,949.2
2019-05-13T10:26:37.557Z,949.1
2019-05-13T10:27:38.049Z,949.1
2019-05-13T10:28:38.427Z,948.9
2019-05-13T10:29:39.091Z,949.1
2019-05-13T10:30:43.106Z,949.1
2019-05-13T10:31:42.420Z,949.2
2019-05-13T10:32:42.907Z,949.1
2019-05-13T10:33:44.305Z,949.1
2019-05-13T10:34:48.246Z,949.2
2019-05-13T10:35:48.326Z,949
2019-05-13T10:36:47.461Z,949.2
2019-05-13T10:37:48.859Z,949.1
2019-05-13T10:38:52.138Z,949.2
2019-05-13T10:39:51.794Z,949.1
2019-05-13T10:40:53.045Z,949.1
2019-05-13T10:41:54.403Z,949.1
2019-05-13T10:42:57.821Z,949.2
2019-05-13T10:43:57.679Z,949.1
2019-05-13T10:44:58.090Z,949.1
2019-05-13T10:46:02.433Z,949.1
2019-05-13T10:47:02.452Z,949.2
2019-05-13T10:48:02.731Z,949.2
2019-05-13T10:49:05.354Z,949.2
2019-05-13T10:50:03.753Z,949.2
2019-05-13T10:51:04.879Z,949.2
2019-05-13T10:52:06.009Z,949.1
2019-05-13T10:53:07.139Z,949.2
2019-05-13T10:54:08.541Z,949.2
2019-05-13T10:55:12.770Z,949.1
2019-05-13T10:56:11.379Z,949.2
2019-05-13T10:57:13.541Z,949.2
2019-05-13T10:58:12.914Z,949.2
2019-05-13T10:59:14.045Z,949.3
2019-05-13T11:00:15.191Z,949.1
2019-05-13T11:01:17.180Z,949.3
2019-05-13T11:02:21.960Z,949.2
2019-05-13T11:03:18.159Z,949.2
2019-05-13T11:04:21.801Z,949.3
2019-05-13T11:05:22.270Z,949.2
2019-05-13T11:06:21.871Z,949.3
2019-05-13T11:07:22.404Z,949.2
2019-05-13T11:08:22.700Z,949.2
2019-05-13T11:09:23.833Z,949.2
2019-05-13T11:10:24.986Z,949.2
2019-05-13T11:11:27.339Z,949.1
2019-05-13T11:14:32.235Z,949.1
2019-05-13T11:15:24.189Z,949.2
2019-05-13T11:16:24.597Z,949
2019-05-13T11:17:30.763Z,949.1
2019-05-13T11:18:29.857Z,949.2
2019-05-13T11:19:34.161Z,949.2
2019-05-13T11:20:28.103Z,949
2019-05-13T11:21:31.599Z,949.1
2019-05-13T11:22:32.651Z,949.1
2019-05-13T11:23:32.533Z,949.1
2019-05-13T11:24:32.927Z,949.1
2019-05-13T11:25:34.337Z,949.1
2019-05-13T11:26:36.243Z,949.1
2019-05-13T11:27:35.533Z,949.1
2019-05-13T11:28:36.664Z,949
2019-05-13T11:29:37.793Z,948.9
2019-05-13T11:30:39.427Z,948.9
2019-05-13T11:31:42.724Z,949
2019-05-13T11:32:42.749Z,949
2019-05-13T11:33:42.942Z,949
2019-05-13T11:34:47.378Z,949.1
2019-05-13T11:35:46.926Z,949
2019-05-13T11:36:48.834Z,949
2019-05-13T11:37:51.537Z,949.1
2019-05-13T11:38:48.817Z,947.8
2019-05-13T11:39:50.993Z,949.1
2019-05-13T11:40:52.290Z,949
2019-05-13T11:41:50.953Z,949
2019-05-13T11:42:52.707Z,949.1
2019-05-13T11:44:22.734Z,949
2019-05-13T11:44:57.935Z,949.1
2019-05-13T11:45:55.025Z,949
2019-05-13T11:46:55.551Z,949
2019-05-13T11:47:57.667Z,949
2019-05-13T11:48:58.064Z,949.1
2019-05-13T11:50:01.388Z,949.1
2019-05-13T11:51:03.400Z,949.1
2019-05-13T11:52:02.541Z,949.1
2019-05-13T11:53:03.476Z,949.1
2019-05-13T11:54:02.993Z,949
2019-05-13T11:55:08.623Z,949
2019-05-13T11:56:09.269Z,949.1
2019-05-13T11:59:04.196Z,949.2
2019-05-13T12:00:02.884Z,949.1
2019-05-13T12:01:03.325Z,949.1
2019-05-13T12:02:04.949Z,949.2
2019-05-13T12:03:09.872Z,949.1
2019-05-13T12:04:08.329Z,949.1
2019-05-13T12:05:09.531Z,949
2019-05-13T12:06:11.679Z,949.2
2019-05-13T12:07:12.923Z,949.2
2019-05-13T12:08:12.654Z,949.1
2019-05-13T12:09:12.964Z,949.2
2019-05-13T12:10:13.025Z,949.2
2019-05-13T12:11:14.336Z,949.2
2019-05-13T12:15:15.944Z,948.8
2019-05-13T12:15:53.366Z,949.2
2019-05-13T12:18:08.398Z,949.2
2019-05-13T12:19:09.109Z,949.3
2019-05-13T12:20:12.009Z,949.2
2019-05-13T12:21:12.287Z,949.1
2019-05-13T12:22:13.098Z,947.4
2019-05-13T12:23:13.052Z,949.2
2019-05-13T12:24:16.842Z,949.2
2019-05-13T12:25:14.268Z,949.2
2019-05-13T12:26:18.407Z,949.2
2019-05-13T12:27:17.317Z,949.3
2019-05-13T12:28:17.736Z,949.1
2019-05-13T12:29:24.708Z,949.2
2019-05-13T12:30:22.528Z,949.3
2019-05-13T12:31:22.182Z,949.2
2019-05-13T12:32:22.322Z,949
2019-05-13T12:33:22.790Z,949.3
2019-05-13T12:34:23.249Z,949.3
2019-05-13T12:35:24.377Z,949.3
2019-05-13T12:36:25.502Z,949.2
2019-05-13T12:37:27.548Z,949.2
2019-05-13T12:38:27.904Z,949.3
2019-05-13T12:39:28.395Z,949.3
2019-05-13T12:40:33.628Z,949.3
2019-05-13T12:41:32.913Z,949.1
2019-05-13T12:42:33.755Z,949.2
2019-05-13T12:43:32.290Z,949.1
2019-05-13T12:44:33.678Z,949.2
2019-05-13T12:45:35.075Z,949.3
2019-05-13T12:46:36.542Z,949.2
2019-05-13T12:47:37.671Z,949.3
2019-05-13T12:48:39.096Z,949.2
2019-05-13T12:49:43.692Z,949.3
2019-05-13T12:50:43.088Z,949.3
2019-05-13T12:51:43.847Z,949
2019-05-13T12:52:43.688Z,949.3
2019-05-13T12:53:43.716Z,949.2
2019-05-13T12:54:44.505Z,949.3
2019-05-13T12:55:52.046Z,949.3
2019-05-13T12:58:41.792Z,949.3
2019-05-13T12:59:43.498Z,949.2
2019-05-13T13:00:44.064Z,949.3
2019-05-13T13:01:45.823Z,949.2
2019-05-13T13:02:51.283Z,949.2
2019-05-13T13:03:47.176Z,949.2
2019-05-13T13:05:21.152Z,949.3
2019-05-13T13:05:49.392Z,949.2
2019-05-13T13:06:53.016Z,949.2
2019-05-13T13:10:47.799Z,949.2
2019-05-13T13:11:53.931Z,949.2
2019-05-13T13:12:54.428Z,949.2
2019-05-13T13:14:15.083Z,949.2
2019-05-13T13:14:54.338Z,949
2019-05-13T13:15:54.276Z,949.2
2019-05-13T13:16:54.251Z,949.1
2019-05-13T13:17:59.442Z,949.2
2019-05-13T13:18:55.536Z,949.2
2019-05-13T13:20:14.799Z,949.2
2019-05-13T13:23:04.270Z,949.3
2019-05-13T13:23:54.802Z,949.3
2019-05-13T13:26:59.730Z,949.2
2019-05-13T13:28:15.003Z,949.1
2019-05-13T13:30:52.790Z,949
2019-05-13T13:31:48.916Z,949
2019-05-13T13:32:54.766Z,949
2019-05-13T13:33:53.926Z,949.1
2019-05-13T13:34:54.599Z,949
2019-05-13T13:35:58.776Z,949.1
2019-05-13T13:36:53.140Z,949.2
2019-05-13T13:37:54.275Z,949
2019-05-13T13:39:03.734Z,949.1